Time;durP1;ratioP1;P1;durP2;ratioP2;P2;SDS_P1;SDS_P2;PMS_P1;PMS_P2;Temp;Humidity;BMP_temperature;BMP_pressure;BME280_temperature;BME280_humidity;BME280_pressure;Samples;Min_cycle;Max_cycle;Signal;HPM_P1;HPM_P2
2021/12/29 00:00:58;;;;;;;14.15;7.15;;;6.00;99.90;;;;;;5090347;28;20041;-70
2021/12/29 00:03:23;;;;;;;17.10;7.82;;;5.90;99.90;;;;;;5089247;28;20048;-70
2021/12/29 00:05:49;;;;;;;12.70;6.32;;;5.80;99.90;;;;;;5076710;28;20092;-70
2021/12/29 00:08:18;;;;;;;9.85;6.47;;;5.80;99.90;;;;;;5081508;28;20040;-71
2021/12/29 00:10:44;;;;;;;15.60;7.45;;;6.00;99.90;;;;;;5081179;28;20058;-70
2021/12/29 00:13:09;;;;;;;24.10;8.18;;;5.80;99.90;;;;;;5073319;28;20178;-70
2021/12/29 00:15:36;;;;;;;9.88;6.57;;;5.90;99.90;;;;;;5082715;28;20134;-71
2021/12/29 00:18:02;;;;;;;13.45;5.45;;;5.90;99.90;;;;;;5089195;28;20498;-70
2021/12/29 00:20:31;;;;;;;13.82;6.63;;;5.80;99.90;;;;;;5093584;28;20047;-70
2021/12/29 00:22:58;;;;;;;15.25;6.70;;;5.90;99.90;;;;;;5093383;28;20048;-70
2021/12/29 00:25:24;;;;;;;12.85;6.50;;;5.90;99.90;;;;;;5092772;28;20118;-70
2021/12/29 00:27:50;;;;;;;17.13;7.18;;;5.90;99.90;;;;;;5086752;28;20072;-69
2021/12/29 00:30:16;;;;;;;18.40;6.78;;;6.00;99.90;;;;;;5077578;28;20040;-70
2021/12/29 00:32:41;;;;;;;18.20;6.25;;;6.00;99.90;;;;;;5093036;28;20048;-70
2021/12/29 00:35:11;;;;;;;18.67;6.68;;;5.90;99.90;;;;;;5074924;28;20045;-70
2021/12/29 00:37:37;;;;;;;43.05;11.05;;;5.90;99.90;;;;;;5070754;28;20048;-69
2021/12/29 00:40:03;;;;;;;20.30;8.75;;;6.00;99.90;;;;;;5071800;28;20052;-70
2021/12/29 00:42:29;;;;;;;25.17;8.35;;;6.00;99.90;;;;;;5077294;28;20072;-70
2021/12/29 00:44:55;;;;;;;19.33;8.27;;;6.00;99.90;;;;;;5080806;28;20075;-70
2021/12/29 00:47:20;;;;;;;33.70;11.07;;;6.10;99.90;;;;;;5072753;28;20040;-70
2021/12/29 00:49:47;;;;;;;26.95;11.27;;;6.20;99.90;;;;;;5072646;28;20055;-70
2021/12/29 00:52:13;;;;;;;27.77;10.43;;;6.20;99.90;;;;;;5072594;28;20090;-70
2021/12/29 00:54:41;;;;;;;30.90;12.55;;;6.10;99.90;;;;;;5071687;28;20414;-70
2021/12/29 00:57:06;;;;;;;30.27;11.25;;;6.20;99.90;;;;;;5073047;28;20045;-70
2021/12/29 00:59:32;;;;;;;31.65;12.02;;;6.20;99.90;;;;;;5070484;28;20055;-70
2021/12/29 01:01:58;;;;;;;23.98;10.32;;;6.20;99.90;;;;;;5072813;28;20121;-70
2021/12/29 01:04:23;;;;;;;28.08;10.80;;;6.20;99.90;;;;;;5073082;28;20048;-70
2021/12/29 01:06:49;;;;;;;37.55;13.18;;;6.30;99.90;;;;;;5098431;28;20074;-69
2021/12/29 01:09:15;;;;;;;28.65;11.88;;;6.40;99.90;;;;;;5104124;28;20036;-69
2021/12/29 01:11:41;;;;;;;22.52;10.95;;;6.40;99.90;;;;;;5108530;28;20118;-70
2021/12/29 01:14:08;;;;;;;30.92;11.65;;;6.40;99.90;;;;;;5112538;28;20180;-70
2021/12/29 01:19:08;;;;;;;27.95;12.52;;;6.30;99.90;;;;;;5112972;28;20085;-70
2021/12/29 01:21:35;;;;;;;25.90;11.35;;;6.30;99.90;;;;;;5112163;28;20394;-70
2021/12/29 01:24:03;;;;;;;34.58;13.05;;;6.30;99.90;;;;;;5113157;28;20051;-70
2021/12/29 01:26:29;;;;;;;35.67;13.00;;;6.30;99.90;;;;;;5110638;28;20103;-70
2021/12/29 01:28:54;;;;;;;37.10;14.38;;;6.30;99.90;;;;;;5111662;28;20055;-70
2021/12/29 01:31:20;;;;;;;39.50;14.00;;;6.40;99.90;;;;;;5110401;28;20043;-70
2021/12/29 01:33:46;;;;;;;49.47;14.57;;;6.40;99.90;;;;;;5112008;28;20047;-70
2021/12/29 01:36:11;;;;;;;38.65;12.98;;;6.40;99.90;;;;;;5112730;28;20414;-70
2021/12/29 01:38:37;;;;;;;39.45;13.45;;;6.30;99.90;;;;;;5106781;28;20124;-70
2021/12/29 01:41:03;;;;;;;54.58;14.48;;;6.30;99.90;;;;;;5096776;28;20074;-70
2021/12/29 01:43:28;;;;;;;47.95;15.65;;;6.20;99.90;;;;;;5102077;28;20052;-70
2021/12/29 01:45:54;;;;;;;41.20;13.30;;;6.20;99.90;;;;;;5107565;28;20040;-70
2021/12/29 01:48:20;;;;;;;46.78;14.48;;;6.20;99.90;;;;;;5091906;28;20055;-69
2021/12/29 01:50:50;;;;;;;48.00;15.90;;;6.20;99.90;;;;;;5094513;28;20067;-70
2021/12/29 01:53:23;;;;;;;46.67;13.65;;;6.30;99.90;;;;;;5112457;28;20375;-70
2021/12/29 01:55:51;;;;;;;36.05;11.68;;;6.20;99.90;;;;;;5097715;28;20531;-70
2021/12/29 01:58:17;;;;;;;38.88;16.10;;;6.30;99.90;;;;;;5096912;28;20054;-70
2021/12/29 02:00:46;;;;;;;45.97;15.98;;;6.20;99.90;;;;;;5100282;28;20044;-70
2021/12/29 02:03:11;;;;;;;43.35;15.20;;;6.20;99.90;;;;;;5100447;28;20051;-70
2021/12/29 02:05:38;;;;;;;41.47;14.68;;;6.20;99.90;;;;;;5097450;28;20661;-70
2021/12/29 02:08:05;;;;;;;29.00;14.70;;;6.30;99.90;;;;;;5099848;28;20414;-70
2021/12/29 02:10:36;;;;;;;30.10;13.43;;;6.40;99.90;;;;;;5095093;28;20093;-70
2021/12/29 02:13:02;;;;;;;25.33;11.48;;;6.40;99.90;;;;;;5099319;28;20044;-70
2021/12/29 02:15:28;;;;;;;23.27;11.07;;;6.40;99.90;;;;;;5097722;28;20505;-70
2021/12/29 02:17:54;;;;;;;26.15;11.30;;;6.30;99.90;;;;;;5104358;28;20052;-70
2021/12/29 02:20:20;;;;;;;32.80;10.95;;;6.50;99.90;;;;;;5096480;28;20105;-70
2021/12/29 02:22:51;;;;;;;21.73;9.40;;;6.40;99.90;;;;;;5099642;28;20069;-70
2021/12/29 02:27:45;;;;;;;32.50;9.73;;;6.40;99.90;;;;;;5098814;28;20059;-70
2021/12/29 02:30:11;;;;;;;27.05;9.07;;;6.40;99.90;;;;;;5094687;28;20155;-70
2021/12/29 02:32:38;;;;;;;25.83;9.35;;;6.40;99.90;;;;;;5104085;28;20413;-70
2021/12/29 02:35:04;;;;;;;30.55;8.60;;;6.50;99.90;;;;;;5098725;28;20050;-70
2021/12/29 02:37:30;;;;;;;41.05;11.77;;;6.40;99.90;;;;;;5098302;28;20128;-70
2021/12/29 02:39:56;;;;;;;33.05;10.65;;;6.40;99.90;;;;;;5095159;28;20533;-70
2021/12/29 02:42:28;;;;;;;30.45;10.73;;;6.50;99.90;;;;;;5100806;28;20049;-70
2021/12/29 02:44:54;;;;;;;31.42;10.82;;;6.50;99.90;;;;;;5094071;28;20397;-70
2021/12/29 02:47:20;;;;;;;30.45;10.13;;;6.50;99.90;;;;;;5096650;28;20119;-71
2021/12/29 02:49:47;;;;;;;29.73;10.30;;;6.50;99.90;;;;;;5102021;28;20048;-69
2021/12/29 02:52:14;;;;;;;24.95;8.07;;;6.40;99.90;;;;;;5099319;28;20051;-70
2021/12/29 02:54:40;;;;;;;35.78;9.32;;;6.50;99.90;;;;;;5098564;28;20043;-70
2021/12/29 02:57:06;;;;;;;21.65;8.73;;;6.60;99.90;;;;;;5096536;28;20055;-70
2021/12/29 02:59:35;;;;;;;25.80;7.88;;;6.50;99.90;;;;;;5099240;28;20116;-70
2021/12/29 03:02:00;;;;;;;18.48;6.93;;;6.60;99.90;;;;;;5097436;28;20134;-70
2021/12/29 03:04:26;;;;;;;27.60;8.85;;;6.60;99.90;;;;;;5093760;28;20547;-70
2021/12/29 03:06:51;;;;;;;20.75;9.38;;;6.60;99.90;;;;;;5092439;28;20056;-70
2021/12/29 03:09:17;;;;;;;19.52;7.65;;;6.70;99.90;;;;;;5089842;28;20044;-70
2021/12/29 03:11:45;;;;;;;23.80;8.30;;;6.70;99.90;;;;;;5097757;28;20596;-70
2021/12/29 03:14:11;;;;;;;20.10;9.93;;;6.60;99.90;;;;;;5091710;28;20493;-70
2021/12/29 03:16:38;;;;;;;28.55;11.27;;;6.60;99.90;;;;;;5095716;28;20427;-71
2021/12/29 03:19:05;;;;;;;30.17;9.50;;;6.60;99.90;;;;;;5093340;28;20060;-70
2021/12/29 03:21:31;;;;;;;34.28;11.02;;;6.80;99.90;;;;;;5104474;28;20168;-71
2021/12/29 03:23:57;;;;;;;20.80;10.50;;;6.60;99.90;;;;;;5102491;28;20387;-70
2021/12/29 03:26:23;;;;;;;28.10;11.75;;;6.60;99.90;;;;;;5090039;28;20055;-70
2021/12/29 03:28:49;;;;;;;31.10;12.15;;;6.70;99.90;;;;;;5088699;28;20102;-71
2021/12/29 03:31:17;;;;;;;22.70;9.80;;;6.70;99.90;;;;;;5097308;28;20059;-70
2021/12/29 03:33:44;;;;;;;22.92;11.60;;;6.60;99.90;;;;;;5108795;28;20168;-70
2021/12/29 03:36:11;;;;;;;26.13;9.82;;;6.70;99.90;;;;;;5110993;28;20096;-70
2021/12/29 03:38:39;;;;;;;27.80;11.73;;;6.70;99.90;;;;;;5109373;28;20561;-70
2021/12/29 03:41:07;;;;;;;42.08;11.93;;;6.80;99.90;;;;;;5110196;28;20540;-70
2021/12/29 03:43:34;;;;;;;22.95;9.68;;;6.80;99.90;;;;;;5109405;28;20059;-70
2021/12/29 03:46:01;;;;;;;36.90;11.35;;;6.70;99.90;;;;;;5110865;28;20043;-70
2021/12/29 03:48:28;;;;;;;23.08;10.45;;;6.70;99.90;;;;;;5110060;28;20563;-70
2021/12/29 03:50:56;;;;;;;30.88;11.85;;;6.80;99.90;;;;;;5109823;28;20054;-70
2021/12/29 03:53:22;;;;;;;27.17;12.30;;;6.80;99.90;;;;;;5111900;28;20075;-70
2021/12/29 03:55:50;;;;;;;19.83;10.48;;;6.70;99.90;;;;;;5112472;28;20090;-70
2021/12/29 03:58:20;;;;;;;29.13;10.93;;;6.80;99.90;;;;;;5114731;27;20044;-70
2021/12/29 04:00:47;;;;;;;24.95;9.07;;;6.90;99.90;;;;;;5109941;28;20036;-70
2021/12/29 04:03:13;;;;;;;22.23;10.40;;;6.80;99.90;;;;;;5099161;28;20522;-70
2021/12/29 04:05:39;;;;;;;27.10;12.30;;;6.70;99.90;;;;;;5094202;28;20090;-70
2021/12/29 04:08:04;;;;;;;27.35;11.00;;;6.80;99.90;;;;;;5094194;28;20540;-70
2021/12/29 04:10:30;;;;;;;30.15;12.65;;;6.90;99.90;;;;;;5112119;28;20044;-70
2021/12/29 04:12:56;;;;;;;34.17;11.95;;;6.80;99.90;;;;;;5114595;28;20114;-68
2021/12/29 04:15:24;;;;;;;23.27;11.27;;;6.80;99.90;;;;;;5112580;28;20119;-68
2021/12/29 04:17:51;;;;;;;25.95;12.02;;;6.80;99.90;;;;;;5114292;28;20069;-69
2021/12/29 04:23:07;;;;;;;25.20;12.63;;;6.80;99.90;;;;;;5112259;28;20056;-70
2021/12/29 04:25:36;;;;;;;28.98;12.77;;;6.80;99.90;;;;;;5114045;28;20142;-70
2021/12/29 04:28:08;;;;;;;23.30;12.45;;;6.80;99.90;;;;;;5112862;28;20052;-70
2021/12/29 04:30:34;;;;;;;25.23;11.70;;;6.70;99.90;;;;;;5111832;28;20059;-70
2021/12/29 04:32:59;;;;;;;19.13;11.25;;;6.70;99.90;;;;;;5114217;28;20040;-70
2021/12/29 04:35:25;;;;;;;20.30;10.73;;;6.60;99.90;;;;;;5112954;28;20116;-71
2021/12/29 04:37:51;;;;;;;22.75;11.40;;;6.70;99.90;;;;;;5113190;28;20090;-71
2021/12/29 04:40:18;;;;;;;20.63;11.15;;;6.70;99.90;;;;;;5112384;28;20091;-71
2021/12/29 04:42:43;;;;;;;22.95;10.68;;;6.80;99.90;;;;;;5112225;28;20054;-71
2021/12/29 04:45:10;;;;;;;31.48;10.63;;;6.80;99.90;;;;;;5113372;28;20043;-70
2021/12/29 04:47:40;;;;;;;31.40;10.75;;;6.80;99.90;;;;;;5113580;28;20042;-70
2021/12/29 04:50:17;;;;;;;26.05;10.48;;;6.80;99.90;;;;;;5113881;28;20066;-70
2021/12/29 04:52:43;;;;;;;28.13;11.23;;;6.80;99.90;;;;;;5112921;28;20853;-70
2021/12/29 04:55:09;;;;;;;27.00;10.77;;;6.70;99.90;;;;;;5112497;28;20059;-70
2021/12/29 04:57:35;;;;;;;22.73;11.15;;;6.90;99.90;;;;;;5111297;28;20474;-71
2021/12/29 05:00:00;;;;;;;20.60;10.75;;;6.80;99.90;;;;;;5113671;28;20077;-70
2021/12/29 05:02:26;;;;;;;36.55;10.75;;;6.80;99.90;;;;;;5113704;28;20478;-70
2021/12/29 05:05:01;;;;;;;29.20;12.75;;;6.80;99.90;;;;;;5111195;28;20071;-70
2021/12/29 05:10:12;;;;;;;18.88;10.43;;;6.80;99.90;;;;;;5106135;28;20055;-70
2021/12/29 05:12:38;;;;;;;30.27;10.60;;;6.80;99.90;;;;;;5104824;28;20641;-70
2021/12/29 05:15:04;;;;;;;23.60;11.05;;;6.90;99.90;;;;;;5099664;28;20039;-70
2021/12/29 05:17:30;;;;;;;20.75;10.82;;;6.70;99.90;;;;;;5113108;28;20043;-71
2021/12/29 05:19:55;;;;;;;26.85;11.50;;;6.80;99.90;;;;;;5112241;28;20060;-71
2021/12/29 05:22:21;;;;;;;22.05;10.43;;;6.80;99.90;;;;;;5102509;28;20114;-70
2021/12/29 05:24:47;;;;;;;24.35;11.35;;;6.80;99.90;;;;;;5103231;28;20506;-70
2021/12/29 05:27:12;;;;;;;26.92;10.48;;;6.70;99.90;;;;;;5107792;28;20048;-70
2021/12/29 05:29:38;;;;;;;25.95;10.80;;;6.80;99.90;;;;;;5091240;28;20094;-70
2021/12/29 05:32:04;;;;;;;22.58;11.30;;;6.90;99.90;;;;;;5091196;28;20507;-70
2021/12/29 05:34:30;;;;;;;21.90;10.38;;;6.80;99.90;;;;;;5090067;28;20055;-71
2021/12/29 05:36:55;;;;;;;24.65;12.00;;;6.80;99.90;;;;;;5112573;28;20398;-70
2021/12/29 05:39:21;;;;;;;34.20;12.27;;;6.80;99.90;;;;;;5111328;28;20047;-70
2021/12/29 05:41:46;;;;;;;18.25;10.05;;;6.80;99.90;;;;;;5111864;28;20137;-70
2021/12/29 05:44:12;;;;;;;22.77;11.20;;;6.80;99.90;;;;;;5112847;28;20051;-71
2021/12/29 05:46:38;;;;;;;21.13;10.23;;;6.80;99.90;;;;;;5112341;28;20039;-71
2021/12/29 05:49:03;;;;;;;19.77;10.85;;;6.90;99.90;;;;;;5110531;28;20056;-71
2021/12/29 05:51:29;;;;;;;26.73;11.43;;;6.80;99.90;;;;;;5112218;28;20363;-71
2021/12/29 05:53:55;;;;;;;17.85;10.57;;;6.80;99.90;;;;;;5111774;28;20139;-70
2021/12/29 05:56:20;;;;;;;18.88;10.38;;;6.70;99.90;;;;;;5112638;28;20048;-70
2021/12/29 05:58:46;;;;;;;23.38;10.52;;;6.80;99.90;;;;;;5096638;28;20517;-71
2021/12/29 06:01:11;;;;;;;23.65;11.73;;;6.70;99.90;;;;;;5094504;28;20057;-71
2021/12/29 06:03:39;;;;;;;24.02;11.43;;;6.70;99.90;;;;;;5096563;28;20410;-70
2021/12/29 06:06:05;;;;;;;26.35;11.35;;;6.80;99.90;;;;;;5090335;28;20486;-70
2021/12/29 06:08:31;;;;;;;18.48;10.35;;;6.80;99.90;;;;;;5091114;28;20032;-73
2021/12/29 06:10:56;;;;;;;21.60;10.65;;;6.80;99.90;;;;;;5109985;28;20039;-73
2021/12/29 06:13:22;;;;;;;30.45;11.00;;;6.70;99.90;;;;;;5110905;28;20486;-70
2021/12/29 06:15:48;;;;;;;32.30;12.68;;;6.80;99.90;;;;;;5110349;28;20052;-71
2021/12/29 06:18:13;;;;;;;23.17;11.57;;;6.70;99.90;;;;;;5110638;28;20059;-70
2021/12/29 06:20:39;;;;;;;23.05;10.80;;;6.80;99.90;;;;;;5111572;28;20055;-71
2021/12/29 06:23:07;;;;;;;24.02;10.13;;;6.80;99.90;;;;;;5106986;28;20073;-70
2021/12/29 06:25:33;;;;;;;30.73;12.98;;;6.80;99.90;;;;;;5097096;28;20131;-70
2021/12/29 06:27:59;;;;;;;32.53;12.10;;;6.80;99.90;;;;;;5102621;28;20052;-70
2021/12/29 06:30:24;;;;;;;31.02;12.88;;;6.80;99.90;;;;;;5089556;28;20117;-71
2021/12/29 06:32:50;;;;;;;25.60;13.35;;;6.80;99.90;;;;;;5091196;28;20371;-71
2021/12/29 06:35:16;;;;;;;29.88;11.50;;;6.80;99.90;;;;;;5082852;28;20095;-71
2021/12/29 06:37:42;;;;;;;24.85;11.85;;;6.80;99.90;;;;;;5105133;28;20047;-71
2021/12/29 06:40:09;;;;;;;39.45;13.20;;;6.80;99.90;;;;;;5100319;28;20058;-71
2021/12/29 06:42:35;;;;;;;32.42;12.63;;;6.80;99.90;;;;;;5089890;28;20433;-70
2021/12/29 06:45:01;;;;;;;38.72;13.75;;;7.00;99.90;;;;;;5095636;28;20044;-71
2021/12/29 06:47:27;;;;;;;31.60;14.13;;;6.80;99.90;;;;;;5111525;28;20055;-70
2021/12/29 06:49:53;;;;;;;43.05;14.55;;;6.80;99.90;;;;;;5109944;28;20469;-70
2021/12/29 06:52:18;;;;;;;47.63;13.60;;;7.00;99.90;;;;;;5109542;28;20075;-70
2021/12/29 06:54:46;;;;;;;56.40;15.55;;;7.00;99.90;;;;;;5109886;28;20138;-71
2021/12/29 06:57:12;;;;;;;46.33;14.07;;;6.90;99.90;;;;;;5110813;28;20067;-70
2021/12/29 06:59:38;;;;;;;48.50;14.38;;;7.00;99.90;;;;;;5109762;28;20047;-70
2021/12/29 07:02:04;;;;;;;66.18;16.70;;;6.90;99.90;;;;;;5110228;28;20051;-70
2021/12/29 07:04:30;;;;;;;155.38;22.35;;;7.00;99.90;;;;;;5108812;28;20134;-72
2021/12/29 07:06:56;;;;;;;354.35;38.75;;;6.90;99.90;;;;;;5110287;28;20047;-71
2021/12/29 07:09:22;;;;;;;74.38;18.08;;;6.90;99.90;;;;;;5110356;28;20047;-70
2021/12/29 07:11:48;;;;;;;293.60;37.08;;;7.00;99.90;;;;;;5100013;28;20310;-71
2021/12/29 07:14:14;;;;;;;60.08;15.70;;;7.00;99.90;;;;;;5109315;28;20052;-70
2021/12/29 07:16:43;;;;;;;50.45;15.93;;;7.00;99.90;;;;;;5103724;28;20083;-70
2021/12/29 07:19:09;;;;;;;104.30;19.42;;;7.00;99.90;;;;;;5108907;28;20071;-71
2021/12/29 07:21:35;;;;;;;62.97;16.15;;;7.10;99.90;;;;;;5108987;28;20051;-70
2021/12/29 07:24:00;;;;;;;43.42;13.00;;;7.00;99.90;;;;;;5100083;28;20058;-70
2021/12/29 07:26:26;;;;;;;48.95;14.93;;;7.10;99.90;;;;;;5110388;28;20047;-70
2021/12/29 07:28:52;;;;;;;51.95;15.45;;;7.10;99.90;;;;;;5114444;28;20040;-70
2021/12/29 07:31:19;;;;;;;38.42;12.60;;;7.10;99.90;;;;;;5113906;28;20043;-71
2021/12/29 07:33:45;;;;;;;40.90;12.95;;;7.10;99.90;;;;;;5112966;28;20149;-71
2021/12/29 07:36:11;;;;;;;84.85;18.30;;;7.10;99.90;;;;;;5099924;28;20048;-70
2021/12/29 07:38:41;;;;;;;70.68;15.50;;;7.10;99.90;;;;;;5107981;28;20052;-70
2021/12/29 07:41:08;;;;;;;649.20;68.32;;;7.00;99.90;;;;;;5125440;27;20055;-71
2021/12/29 07:43:35;;;;;;;86.25;16.98;;;7.10;99.90;;;;;;5093343;28;20091;-71
2021/12/29 07:46:01;;;;;;;36.13;11.55;;;7.10;99.90;;;;;;5092458;28;20043;-70
2021/12/29 07:48:29;;;;;;;29.15;11.95;;;7.10;99.90;;;;;;5091132;28;20399;-70
2021/12/29 07:50:56;;;;;;;46.05;12.48;;;7.00;99.90;;;;;;5105126;28;20040;-70
2021/12/29 07:53:21;;;;;;;42.05;13.18;;;7.10;99.90;;;;;;5101663;28;20048;-70
2021/12/29 07:55:47;;;;;;;42.70;14.18;;;7.00;99.90;;;;;;5108817;28;20047;-70
2021/12/29 07:58:13;;;;;;;30.33;10.88;;;7.00;99.90;;;;;;5113668;28;20047;-71
2021/12/29 08:00:39;;;;;;;94.80;15.27;;;7.00;99.90;;;;;;5096341;28;20784;-71
2021/12/29 08:03:05;;;;;;;32.72;11.27;;;7.10;99.90;;;;;;5094659;28;20101;-70
2021/12/29 08:05:30;;;;;;;29.88;10.10;;;7.00;99.90;;;;;;5092679;28;20040;-70
2021/12/29 08:07:56;;;;;;;34.05;11.30;;;7.00;99.90;;;;;;5093624;28;20044;-70
2021/12/29 08:10:22;;;;;;;30.85;10.68;;;7.10;99.90;;;;;;5094330;28;20059;-70
2021/12/29 08:12:48;;;;;;;52.10;13.85;;;7.20;99.90;;;;;;5093863;28;20039;-71
2021/12/29 08:15:13;;;;;;;35.15;11.65;;;7.00;99.90;;;;;;5093369;28;20062;-70
2021/12/29 08:17:40;;;;;;;42.65;12.45;;;7.10;99.90;;;;;;5084834;28;20078;-70
2021/12/29 08:20:08;;;;;;;38.00;12.75;;;7.10;99.90;;;;;;5095051;28;20059;-70
2021/12/29 08:22:34;;;;;;;145.10;21.17;;;7.00;99.90;;;;;;5090596;28;20076;-70
2021/12/29 08:24:59;;;;;;;41.00;13.50;;;7.20;99.90;;;;;;5107664;28;20048;-71
2021/12/29 08:27:25;;;;;;;47.28;12.80;;;7.20;99.90;;;;;;5106756;28;20086;-70
2021/12/29 08:29:51;;;;;;;35.85;13.27;;;7.10;99.90;;;;;;5092813;28;20082;-70
2021/12/29 08:32:16;;;;;;;52.17;14.27;;;7.10;99.90;;;;;;5106678;28;20379;-70
2021/12/29 08:34:42;;;;;;;55.15;16.60;;;7.20;99.90;;;;;;5093855;28;20053;-71
2021/12/29 08:37:08;;;;;;;417.02;44.38;;;7.20;99.90;;;;;;5103400;28;20122;-70
2021/12/29 08:39:33;;;;;;;281.95;31.58;;;7.10;99.90;;;;;;5111595;28;20060;-71
2021/12/29 08:41:59;;;;;;;72.22;17.45;;;7.20;99.90;;;;;;5105198;28;20082;-71
2021/12/29 08:44:25;;;;;;;797.85;80.93;;;7.10;99.90;;;;;;5097440;28;20075;-71
2021/12/29 08:46:50;;;;;;;164.80;23.60;;;7.20;99.90;;;;;;5102840;28;20088;-71
2021/12/29 08:49:16;;;;;;;79.78;18.55;;;7.20;99.90;;;;;;5099547;28;20044;-71
2021/12/29 08:51:41;;;;;;;91.68;16.70;;;7.20;99.90;;;;;;5092429;28;20040;-71
2021/12/29 08:54:07;;;;;;;96.22;17.77;;;7.10;99.90;;;;;;5091283;28;20056;-71
2021/12/29 08:56:33;;;;;;;78.45;17.77;;;7.20;99.90;;;;;;5092861;28;20048;-71
2021/12/29 08:58:59;;;;;;;82.38;16.95;;;7.10;99.90;;;;;;5092564;28;20142;-71
2021/12/29 09:01:25;;;;;;;84.82;17.60;;;7.20;99.90;;;;;;5091840;28;20048;-71
2021/12/29 09:03:51;;;;;;;101.78;18.45;;;7.10;99.90;;;;;;5090752;28;20040;-71
2021/12/29 09:06:18;;;;;;;72.45;17.15;;;7.20;99.90;;;;;;5093252;28;20058;-71
2021/12/29 09:08:45;;;;;;;50.38;14.02;;;7.20;99.90;;;;;;5092939;28;20052;-71
2021/12/29 09:11:12;;;;;;;95.45;16.83;;;7.20;99.90;;;;;;5091012;28;20048;-71
2021/12/29 09:13:38;;;;;;;49.60;13.73;;;7.30;99.90;;;;;;5093936;28;20050;-71
2021/12/29 09:16:05;;;;;;;105.00;17.38;;;7.20;99.90;;;;;;5099211;28;20406;-72
2021/12/29 09:18:33;;;;;;;158.05;22.42;;;7.30;99.90;;;;;;5097423;28;20528;-72
2021/12/29 09:21:06;;;;;;;55.53;13.30;;;7.20;99.90;;;;;;5098854;28;20059;-71
2021/12/29 09:23:32;;;;;;;73.78;15.02;;;7.30;99.90;;;;;;5111593;28;20131;-74
2021/12/29 09:25:58;;;;;;;56.55;13.20;;;7.30;99.90;;;;;;5100817;28;20090;-75
2021/12/29 09:28:24;;;;;;;72.13;13.90;;;7.30;99.90;;;;;;5087869;28;20047;-76
2021/12/29 09:30:51;;;;;;;81.55;15.75;;;7.30;99.90;;;;;;5089680;28;20143;-70
2021/12/29 09:33:19;;;;;;;45.25;11.20;;;7.30;99.90;;;;;;5096853;28;20468;-70
2021/12/29 09:35:49;;;;;;;48.97;12.02;;;7.30;99.90;;;;;;5112276;28;20379;-69
2021/12/29 09:38:17;;;;;;;54.38;13.07;;;7.40;99.90;;;;;;5090692;28;20040;-70
2021/12/29 09:40:43;;;;;;;26.83;9.57;;;7.40;99.90;;;;;;5091915;28;20058;-68
2021/12/29 09:43:09;;;;;;;34.40;10.52;;;7.40;99.90;;;;;;5094658;28;20462;-68
2021/12/29 09:45:37;;;;;;;36.92;11.63;;;7.40;99.90;;;;;;5111801;27;20043;-68
2021/12/29 09:48:03;;;;;;;36.22;10.82;;;7.40;99.90;;;;;;5084284;28;20529;-70
2021/12/29 09:50:29;;;;;;;23.90;9.18;;;7.50;99.90;;;;;;5085609;28;20052;-70
2021/12/29 09:52:56;;;;;;;30.65;10.07;;;7.40;99.90;;;;;;5082468;28;20048;-69
2021/12/29 09:55:24;;;;;;;30.15;10.32;;;7.50;99.90;;;;;;5087259;28;20043;-69
2021/12/29 09:57:55;;;;;;;22.83;8.43;;;7.50;99.90;;;;;;5089324;28;20075;-69
2021/12/29 10:00:31;;;;;;;25.53;7.63;;;7.50;99.90;;;;;;5089354;28;20090;-69
2021/12/29 10:03:00;;;;;;;22.65;8.98;;;7.50;99.90;;;;;;5090125;28;20067;-69
2021/12/29 10:05:28;;;;;;;37.92;9.88;;;7.60;99.90;;;;;;5079775;28;20458;-69
2021/12/29 10:07:59;;;;;;;22.67;9.23;;;7.60;99.90;;;;;;5093538;28;20090;-69
2021/12/29 10:10:25;;;;;;;19.73;8.77;;;7.60;99.90;;;;;;5092086;28;20055;-69
2021/12/29 10:12:50;;;;;;;21.50;9.25;;;7.60;99.90;;;;;;5087181;28;20044;-69
2021/12/29 10:15:16;;;;;;;15.77;8.88;;;7.60;99.90;;;;;;5085778;28;20694;-69
2021/12/29 10:17:42;;;;;;;14.88;8.23;;;7.60;99.90;;;;;;5105210;28;20032;-69
2021/12/29 10:20:14;;;;;;;24.42;9.98;;;7.60;99.90;;;;;;5112670;28;20055;-69
2021/12/29 10:22:41;;;;;;;;;;;7.60;99.90;;;;;;5110985;28;20120;-70
2021/12/29 10:25:14;;;;;;;18.33;7.88;;;7.80;99.90;;;;;;5108892;28;19919;-70
2021/12/29 10:27:41;;;;;;;19.70;8.95;;;7.80;99.90;;;;;;5084702;28;20379;-70
2021/12/29 10:30:36;;;;;;;19.95;8.20;;;7.70;99.90;;;;;;5085126;28;20036;-70
2021/12/29 10:33:12;;;;;;;23.40;9.02;;;7.90;99.90;;;;;;5072640;28;20087;-69
2021/12/29 10:35:37;;;;;;;23.27;8.73;;;7.70;99.90;;;;;;5090128;28;20048;-69
2021/12/29 10:38:22;;;;;;;22.02;8.27;;;7.70;99.90;;;;;;5088859;28;20058;-70
2021/12/29 10:40:48;;;;;;;22.50;8.15;;;7.80;99.90;;;;;;5091732;28;20464;-69
2021/12/29 10:43:15;;;;;;;18.10;7.85;;;7.70;99.90;;;;;;5089871;28;20081;-69
2021/12/29 10:45:43;;;;;;;17.85;7.90;;;7.80;99.90;;;;;;5091250;28;20051;-69
2021/12/29 10:48:28;;;;;;;17.15;7.95;;;7.80;99.90;;;;;;5088833;28;20054;-69
2021/12/29 10:51:08;;;;;;;14.30;7.53;;;7.90;99.90;;;;;;5088495;28;20047;-70
2021/12/29 10:53:37;;;;;;;15.95;7.22;;;7.80;99.90;;;;;;5088906;28;20055;-70
2021/12/29 10:56:04;;;;;;;25.00;8.15;;;7.80;99.90;;;;;;5100589;28;20053;-69
2021/12/29 10:58:34;;;;;;;20.17;8.15;;;7.90;99.90;;;;;;5085347;28;20035;-70
2021/12/29 11:01:02;;;;;;;19.55;7.63;;;7.80;99.90;;;;;;5088896;28;20051;-79
2021/12/29 11:03:29;;;;;;;14.00;7.28;;;7.80;99.90;;;;;;5088774;28;20478;-67
2021/12/29 11:05:59;;;;;;;18.17;6.90;;;7.80;99.90;;;;;;5087835;28;20036;-68
2021/12/29 11:08:31;;;;;;;21.70;7.60;;;7.90;99.90;;;;;;5088168;28;20052;-68
2021/12/29 11:11:04;;;;;;;13.52;6.38;;;7.70;99.90;;;;;;5088071;28;20043;-68
2021/12/29 11:13:31;;;;;;;14.90;6.72;;;7.80;99.90;;;;;;5089088;28;20051;-69
2021/12/29 11:16:00;;;;;;;15.73;7.20;;;7.80;99.90;;;;;;5089397;28;20040;-67
2021/12/29 11:18:39;;;;;;;9.82;5.30;;;7.70;99.90;;;;;;5077818;28;20044;-67
2021/12/29 11:21:04;;;;;;;14.70;6.95;;;7.80;99.90;;;;;;5078128;28;20090;-67
2021/12/29 11:23:30;;;;;;;20.83;5.93;;;7.70;99.90;;;;;;5085794;28;20494;-67
2021/12/29 11:26:01;;;;;;;16.92;6.45;;;7.70;99.90;;;;;;5090740;28;20418;-67
2021/12/29 11:28:30;;;;;;;20.10;6.80;;;7.70;99.90;;;;;;5091704;28;20040;-66
2021/12/29 11:31:02;;;;;;;16.92;5.80;;;7.70;99.90;;;;;;5085440;28;20048;-66
2021/12/29 11:33:33;;;;;;;17.35;5.93;;;7.70;99.90;;;;;;5079694;28;20052;-67
2021/12/29 11:36:00;;;;;;;16.45;6.32;;;7.80;99.90;;;;;;5081002;28;20044;-67
2021/12/29 11:38:26;;;;;;;23.70;6.78;;;7.70;99.90;;;;;;5090292;28;20483;-68
2021/12/29 11:40:59;;;;;;;24.92;6.20;;;7.80;99.90;;;;;;5089534;28;20048;-67
2021/12/29 11:43:25;;;;;;;11.65;5.10;;;7.80;99.90;;;;;;5087729;28;20123;-67
2021/12/29 11:45:53;;;;;;;13.68;5.20;;;7.80;99.90;;;;;;5087584;28;20040;-67
2021/12/29 11:48:23;;;;;;;15.25;6.00;;;7.90;99.90;;;;;;5088483;28;20044;-67
2021/12/29 11:50:59;;;;;;;15.75;5.45;;;7.80;99.90;;;;;;5089339;28;20116;-67
2021/12/29 11:53:36;;;;;;;18.13;6.97;;;7.70;99.90;;;;;;5085750;28;20032;-67
2021/12/29 11:56:06;;;;;;;17.50;5.72;;;7.80;99.90;;;;;;5087179;28;20059;-67
2021/12/29 11:58:41;;;;;;;27.08;6.32;;;7.80;99.90;;;;;;5089352;28;20044;-67
2021/12/29 12:01:18;;;;;;;26.48;5.43;;;7.90;99.90;;;;;;5084908;28;20089;-67
2021/12/29 12:03:57;;;;;;;17.85;6.22;;;7.90;99.90;;;;;;5088636;28;20077;-67
2021/12/29 12:06:30;;;;;;;13.20;6.15;;;7.80;99.90;;;;;;5088221;28;20048;-66
2021/12/29 12:09:12;;;;;;;16.13;6.22;;;8.00;99.90;;;;;;5090314;28;20091;-66
2021/12/29 12:11:48;;;;;;;17.20;6.07;;;7.80;99.90;;;;;;5089875;28;20402;-66
2021/12/29 12:14:22;;;;;;;8.73;5.18;;;7.80;99.90;;;;;;5088890;28;20528;-66
2021/12/29 12:16:51;;;;;;;22.17;7.13;;;7.80;99.90;;;;;;5102533;28;20517;-67
2021/12/29 12:19:19;;;;;;;17.98;6.00;;;7.80;99.90;;;;;;5104803;28;20051;-67
2021/12/29 12:21:45;;;;;;;17.30;6.28;;;7.90;99.90;;;;;;5075891;28;20072;-67
2021/12/29 12:24:21;;;;;;;22.90;6.30;;;7.90;99.90;;;;;;5071631;28;20469;-67
2021/12/29 12:27:03;;;;;;;68.05;9.70;;;7.80;99.90;;;;;;5112664;28;20059;-67
2021/12/29 12:29:37;;;;;;;20.98;5.95;;;7.80;99.90;;;;;;5112848;28;20079;-67
2021/12/29 12:32:04;;;;;;;14.65;5.70;;;7.90;99.90;;;;;;5113824;28;20040;-67
2021/12/29 12:34:31;;;;;;;22.83;6.32;;;7.80;99.90;;;;;;5085722;28;20052;-67
2021/12/29 12:36:57;;;;;;;21.02;5.43;;;7.80;99.90;;;;;;5084930;28;20047;-67
2021/12/29 12:39:23;;;;;;;15.43;5.38;;;7.90;99.90;;;;;;5093220;28;20486;-67
2021/12/29 12:41:53;;;;;;;17.83;5.55;;;7.80;99.90;;;;;;5106650;28;20058;-66
2021/12/29 12:44:30;;;;;;;17.73;5.45;;;7.80;99.90;;;;;;5114993;28;20053;-67
2021/12/29 12:47:08;;;;;;;14.68;4.88;;;7.90;99.90;;;;;;5113268;28;20036;-67
2021/12/29 12:49:51;;;;;;;18.75;4.47;;;7.90;99.90;;;;;;5110295;28;20064;-67
2021/12/29 12:52:17;;;;;;;12.75;4.45;;;7.80;99.90;;;;;;5091590;28;20048;-67